Delta Junction, AK

6:24 PM AKDT on May 29, 2015 (GMT -0800)
Allen Army Air Field | | Change Station
CLOSE
Current Station
Airport
Location: Big Delta,
Elevation: 1306 ft
Nearby Weather Stations

Elev 1306 ft 63.99 °N, 145.72 °W | Updated 31 minutes ago

Mostly Cloudy
Mostly Cloudy
68 °F
Feels Like 68 °F
N
7
Wind Variable Wind from WNW

Today
High -- | Low -- °F
--% Chance of Precip.
Yesterday
High -- | Low -- °F
Precip. -- in
3:48 AM 11:34 PM
Waxing Gibbous, 87% visible
Pressure 30.16 in
Visibility 10.0 miles
Clouds Few 4000 ft
Scattered Clouds 6000 ft
Scattered Clouds 10000 ft
Mostly Cloudy 20000 ft
Dew Point 40 °F
Humidity 36%
Rainfall 0.00 in
Snow Depth Not available.
UV 2 out of 12
Pollen Not available.
Air Quality Not available.
Flu Activity Sporadic
METAR PABI 300153Z 30006KT 10SM FEW040 SCT060 SCT100 BKN200 20/04 A3016 RMK AO2 SLP212 T02000044

More Conditions Fewer Conditions

Pressure 30.16 in
Visibility 10.0 miles
Clouds Few 4000 ft
Scattered Clouds 6000 ft
Scattered Clouds 10000 ft
Mostly Cloudy 20000 ft
Dew Point 40 °F
Humidity 36%
Rainfall 0.00 in
Snow Depth Not available.
UV 2 out of 12
Pollen Not available.
Air Quality Not available.
Flu Activity Sporadic
METAR PABI 300153Z 30006KT 10SM FEW040 SCT060 SCT100 BKN200 20/04 A3016 RMK AO2 SLP212 T02000044

More Conditions Fewer Conditions

10-Day Weather Forecast

Almanac

Astronomy

May. 29, 2015 Rise Set
Actual Time
Civil Twilight
Nautical Twilight
Astronomical Twilight
Moon
Length of Visible Light
Length of Day
Tomorrow will be .
, % of the Moon is Illuminated

Today's Extremes

State Highs State Lows

Community

WunderPhotos

Upload Photos

1,825,423 photos uploaded!

WunderBlogs® & News

Nearby

Air Quality

  Air Quality AQ Index Pollutant
Not available.

Snow Depth

Station Depth Elevation

Earthquake Activity

City Distance Mag. Time & Date
Minimum magnitude displayed is 2.5.

Coastal Water Temperatures

Place Temperature

Stations

Nearby Weather Stations

Station Location Temp. Windchill Dew Point Humidity Wind Precip. Elev Updated Type